Terminal Aerodrome Forecast
Issued by NWS

Home | Current Version | Previous Version | Text Only | Print | Product List | Glossary On
Versions: 1 2 3 4 5 6 7 8 9 10 11 12 13
760
FTUS45 KRIW 150534
TAFCPR
TAF
KCPR 150534Z 1506/1606 24008KT P6SM SKC
     FM151700 22014G20KT P6SM SCT250
     FM160000 23008KT P6SM FEW150 SCT250=

USA.gov is the U.S. government's official web portal to all federal, state and local government web resources and services.